sensor_id;sensor_type;location;lat;lon;timestamp;pressure;altitude;pressure_sealevel;temperature;humidity
77299;BME280;66361;52.034;20.656;2023-07-29T05:05:00;99286.53;;;21.72;81.79
77299;BME280;66361;52.034;20.656;2023-07-29T05:09:13;99298.22;;;25.01;68.58
77299;BME280;66361;52.034;20.656;2023-07-29T05:13:19;99292.28;;;26.77;59.41
77299;BME280;66361;52.034;20.656;2023-07-29T05:17:22;99296.94;;;26.32;59.28
77299;BME280;66361;52.034;20.656;2023-07-29T05:21:27;99296.16;;;28.04;53.57
77299;BME280;66361;52.034;20.656;2023-07-29T05:25:30;99299.56;;;27.02;54.70
77299;BME280;66361;52.034;20.656;2023-07-29T05:29:34;99301.59;;;27.31;54.55
77299;BME280;66361;52.034;20.656;2023-07-29T05:33:37;99304.91;;;29.58;48.13
77299;BME280;66361;52.034;20.656;2023-07-29T05:37:44;99305.72;;;30.67;44.08
77299;BME280;66361;52.034;20.656;2023-07-29T05:41:47;99307.03;;;31.31;42.67
77299;BME280;66361;52.034;20.656;2023-07-29T05:45:51;99308.53;;;31.99;40.90
77299;BME280;66361;52.034;20.656;2023-07-29T05:49:54;99304.63;;;30.85;44.89
77299;BME280;66361;52.034;20.656;2023-07-29T05:54:00;99305.78;;;30.39;44.18
77299;BME280;66361;52.034;20.656;2023-07-29T05:58:03;99310.56;;;30.48;44.83
77299;BME280;66361;52.034;20.656;2023-07-29T06:02:07;99319.00;;;32.55;39.78
77299;BME280;66361;52.034;20.656;2023-07-29T06:06:10;99319.41;;;28.82;45.83
77299;BME280;66361;52.034;20.656;2023-07-29T06:10:15;99324.25;;;27.36;51.98
77299;BME280;66361;52.034;20.656;2023-07-29T06:14:20;99326.69;;;25.94;55.92
77299;BME280;66361;52.034;20.656;2023-07-29T06:18:23;99328.31;;;24.46;61.54
77299;BME280;66361;52.034;20.656;2023-07-29T06:22:26;99332.19;;;23.70;65.91
77299;BME280;66361;52.034;20.656;2023-07-29T06:26:31;99337.47;;;23.56;65.82
77299;BME280;66361;52.034;20.656;2023-07-29T06:30:34;99337.41;;;23.78;64.87
77299;BME280;66361;52.034;20.656;2023-07-29T06:34:36;99340.28;;;24.24;60.05
77299;BME280;66361;52.034;20.656;2023-07-29T06:38:39;99338.94;;;26.41;55.09
77299;BME280;66361;52.034;20.656;2023-07-29T06:42:44;99348.16;;;29.02;46.92
77299;BME280;66361;52.034;20.656;2023-07-29T06:46:47;99356.59;;;31.45;43.34
77299;BME280;66361;52.034;20.656;2023-07-29T06:50:50;99344.22;;;31.04;40.62
77299;BME280;66361;52.034;20.656;2023-07-29T06:54:54;99359.16;;;29.65;43.69
77299;BME280;66361;52.034;20.656;2023-07-29T06:59:00;99362.38;;;29.39;46.95
77299;BME280;66361;52.034;20.656;2023-07-29T07:03:03;99342.69;;;29.95;42.39
77299;BME280;66361;52.034;20.656;2023-07-29T07:07:07;99345.56;;;27.51;48.58
77299;BME280;66361;52.034;20.656;2023-07-29T07:11:10;99342.38;;;27.36;52.54
77299;BME280;66361;52.034;20.656;2023-07-29T07:15:14;99332.84;;;26.15;56.47
77299;BME280;66361;52.034;20.656;2023-07-29T07:19:18;99347.09;;;25.90;57.11
77299;BME280;66361;52.034;20.656;2023-07-29T07:23:24;99334.69;;;27.94;47.94
77299;BME280;66361;52.034;20.656;2023-07-29T07:27:27;99336.47;;;31.12;42.35
77299;BME280;66361;52.034;20.656;2023-07-29T07:31:33;99341.91;;;30.22;42.08
77299;BME280;66361;52.034;20.656;2023-07-29T07:35:37;99350.34;;;28.10;49.09
77299;BME280;66361;52.034;20.656;2023-07-29T07:39:42;99336.22;;;27.04;47.85
77299;BME280;66361;52.034;20.656;2023-07-29T07:43:45;99336.06;;;26.36;51.86
77299;BME280;66361;52.034;20.656;2023-07-29T07:47:51;99339.28;;;31.01;42.73
77299;BME280;66361;52.034;20.656;2023-07-29T07:51:54;99342.59;;;32.67;37.71
77299;BME280;66361;52.034;20.656;2023-07-29T07:55:57;99340.25;;;35.19;31.65
77299;BME280;66361;52.034;20.656;2023-07-29T08:00:00;99345.88;;;34.36;36.35
77299;BME280;66361;52.034;20.656;2023-07-29T08:04:06;99340.28;;;30.66;40.87
77299;BME280;66361;52.034;20.656;2023-07-29T08:08:10;99341.03;;;28.77;42.95
77299;BME280;66361;52.034;20.656;2023-07-29T08:12:13;99338.63;;;28.58;48.60
77299;BME280;66361;52.034;20.656;2023-07-29T08:16:20;99328.06;;;32.12;38.04
77299;BME280;66361;52.034;20.656;2023-07-29T08:20:25;99339.31;;;34.42;31.05
77299;BME280;66361;52.034;20.656;2023-07-29T08:24:28;99331.44;;;31.98;34.73
77299;BME280;66361;52.034;20.656;2023-07-29T08:28:33;99330.31;;;30.27;39.06
77299;BME280;66361;52.034;20.656;2023-07-29T08:32:36;99325.59;;;30.67;39.36
77299;BME280;66361;52.034;20.656;2023-07-29T08:36:41;99329.72;;;30.70;38.14
77299;BME280;66361;52.034;20.656;2023-07-29T08:40:47;99322.91;;;32.43;35.29
77299;BME280;66361;52.034;20.656;2023-07-29T08:44:53;99324.84;;;33.38;33.70
77299;BME280;66361;52.034;20.656;2023-07-29T08:48:57;99319.44;;;34.00;32.46
77299;BME280;66361;52.034;20.656;2023-07-29T08:53:05;99316.63;;;33.85;31.72
77299;BME280;66361;52.034;20.656;2023-07-29T08:57:08;99314.13;;;30.49;39.89
77299;BME280;66361;52.034;20.656;2023-07-29T09:01:12;99314.56;;;30.29;39.06
77299;BME280;66361;52.034;20.656;2023-07-29T09:05:16;99316.53;;;32.91;36.70
77299;BME280;66361;52.034;20.656;2023-07-29T09:09:21;99311.38;;;33.73;30.12
77299;BME280;66361;52.034;20.656;2023-07-29T09:13:24;99309.97;;;34.38;30.59
77299;BME280;66361;52.034;20.656;2023-07-29T09:17:31;99304.56;;;34.73;30.66
77299;BME280;66361;52.034;20.656;2023-07-29T09:21:38;99303.28;;;34.03;33.73
77299;BME280;66361;52.034;20.656;2023-07-29T09:25:45;99304.78;;;34.36;32.70
77299;BME280;66361;52.034;20.656;2023-07-29T09:29:49;99300.88;;;34.12;33.40
77299;BME280;66361;52.034;20.656;2023-07-29T09:33:56;99303.75;;;31.29;34.14
77299;BME280;66361;52.034;20.656;2023-07-29T09:38:00;99296.31;;;30.58;34.62
77299;BME280;66361;52.034;20.656;2023-07-29T09:42:04;99297.94;;;29.74;37.27
77299;BME280;66361;52.034;20.656;2023-07-29T09:46:08;99291.44;;;28.70;40.50
77299;BME280;66361;52.034;20.656;2023-07-29T09:50:11;99289.41;;;28.54;45.32
77299;BME280;66361;52.034;20.656;2023-07-29T09:54:14;99296.09;;;28.10;47.44
77299;BME280;66361;52.034;20.656;2023-07-29T09:58:26;99285.75;;;28.30;43.27
77299;BME280;66361;52.034;20.656;2023-07-29T10:02:30;99287.16;;;29.67;43.68
77299;BME280;66361;52.034;20.656;2023-07-29T10:06:34;99281.75;;;30.36;39.27
77299;BME280;66361;52.034;20.656;2023-07-29T10:10:38;99288.34;;;30.40;39.88
77299;BME280;66361;52.034;20.656;2023-07-29T10:14:42;99284.72;;;30.51;41.18
77299;BME280;66361;52.034;20.656;2023-07-29T10:18:47;99283.47;;;30.87;38.11
77299;BME280;66361;52.034;20.656;2023-07-29T10:22:51;99273.94;;;29.99;40.23
77299;BME280;66361;52.034;20.656;2023-07-29T10:26:59;99272.94;;;30.45;39.38
77299;BME280;66361;52.034;20.656;2023-07-29T10:31:04;99277.38;;;29.43;43.29
77299;BME280;66361;52.034;20.656;2023-07-29T10:35:08;99270.13;;;28.44;42.39
77299;BME280;66361;52.034;20.656;2023-07-29T10:39:11;99260.31;;;28.43;45.41
77299;BME280;66361;52.034;20.656;2023-07-29T10:43:19;99268.66;;;28.00;45.85
77299;BME280;66361;52.034;20.656;2023-07-29T10:47:28;99263.78;;;27.90;48.16
77299;BME280;66361;52.034;20.656;2023-07-29T10:51:34;99269.53;;;27.46;48.11
77299;BME280;66361;52.034;20.656;2023-07-29T10:55:37;99259.50;;;27.28;49.61
77299;BME280;66361;52.034;20.656;2023-07-29T10:59:54;99260.78;;;28.40;47.28
77299;BME280;66361;52.034;20.656;2023-07-29T11:04:28;99254.94;;;29.36;47.40
77299;BME280;66361;52.034;20.656;2023-07-29T11:08:33;99247.97;;;28.82;43.95
77299;BME280;66361;52.034;20.656;2023-07-29T11:12:44;99254.84;;;28.31;45.18
77299;BME280;66361;52.034;20.656;2023-07-29T11:16:49;99241.94;;;27.85;49.90
77299;BME280;66361;52.034;20.656;2023-07-29T11:20:55;99236.16;;;28.12;43.50
77299;BME280;66361;52.034;20.656;2023-07-29T11:24:58;99238.31;;;28.63;43.92
77299;BME280;66361;52.034;20.656;2023-07-29T11:29:02;99226.47;;;27.38;46.98
77299;BME280;66361;52.034;20.656;2023-07-29T11:33:06;99221.88;;;27.38;49.09
77299;BME280;66361;52.034;20.656;2023-07-29T11:37:11;99215.16;;;27.59;51.86
77299;BME280;66361;52.034;20.656;2023-07-29T11:41:19;99215.06;;;26.93;49.84
77299;BME280;66361;52.034;20.656;2023-07-29T11:45:23;99212.56;;;26.91;53.24
77299;BME280;66361;52.034;20.656;2023-07-29T11:49:40;99204.34;;;26.80;53.01
77299;BME280;66361;52.034;20.656;2023-07-29T11:53:46;99209.84;;;26.73;53.70
77299;BME280;66361;52.034;20.656;2023-07-29T11:57:51;99206.69;;;26.94;50.25
77299;BME280;66361;52.034;20.656;2023-07-29T12:01:55;99200.25;;;26.95;48.83
77299;BME280;66361;52.034;20.656;2023-07-29T12:05:58;99194.81;;;27.14;47.99
77299;BME280;66361;52.034;20.656;2023-07-29T12:10:04;99187.16;;;27.11;47.64
77299;BME280;66361;52.034;20.656;2023-07-29T12:14:08;99186.94;;;26.94;47.69
77299;BME280;66361;52.034;20.656;2023-07-29T12:18:12;99190.97;;;26.67;48.63
77299;BME280;66361;52.034;20.656;2023-07-29T12:22:19;99171.88;;;26.80;52.13
77299;BME280;66361;52.034;20.656;2023-07-29T12:26:28;99180.44;;;27.13;52.20
77299;BME280;66361;52.034;20.656;2023-07-29T12:30:32;99170.91;;;27.29;55.84
77299;BME280;66361;52.034;20.656;2023-07-29T12:34:37;99160.13;;;27.40;47.78
77299;BME280;66361;52.034;20.656;2023-07-29T12:38:42;99153.53;;;27.00;48.89
77299;BME280;66361;52.034;20.656;2023-07-29T12:42:47;99150.44;;;27.33;47.27
77299;BME280;66361;52.034;20.656;2023-07-29T12:46:50;99155.78;;;27.21;52.48
77299;BME280;66361;52.034;20.656;2023-07-29T12:50:53;99159.50;;;26.90;55.68
77299;BME280;66361;52.034;20.656;2023-07-29T12:54:56;99146.41;;;27.24;51.74
77299;BME280;66361;52.034;20.656;2023-07-29T12:59:02;99147.06;;;27.97;46.92
77299;BME280;66361;52.034;20.656;2023-07-29T13:03:05;99143.16;;;27.93;45.27
77299;BME280;66361;52.034;20.656;2023-07-29T13:07:09;99143.09;;;27.52;48.41
77299;BME280;66361;52.034;20.656;2023-07-29T13:11:12;99141.94;;;27.59;48.66
77299;BME280;66361;52.034;20.656;2023-07-29T13:15:17;99143.94;;;28.35;49.64
77299;BME280;66361;52.034;20.656;2023-07-29T13:19:22;99132.25;;;28.34;46.44
77299;BME280;66361;52.034;20.656;2023-07-29T13:23:25;99131.50;;;28.04;45.21
77299;BME280;66361;52.034;20.656;2023-07-29T13:27:28;99119.53;;;27.52;46.82
77299;BME280;66361;52.034;20.656;2023-07-29T13:31:32;99115.72;;;27.41;52.42
77299;BME280;66361;52.034;20.656;2023-07-29T13:35:36;99113.81;;;27.12;49.49
77299;BME280;66361;52.034;20.656;2023-07-29T13:39:39;99107.28;;;27.20;48.97
77299;BME280;66361;52.034;20.656;2023-07-29T13:43:42;99095.13;;;27.52;51.39
77299;BME280;66361;52.034;20.656;2023-07-29T13:47:47;99093.94;;;27.18;50.22
77299;BME280;66361;52.034;20.656;2023-07-29T13:51:50;99086.06;;;26.80;50.17
77299;BME280;66361;52.034;20.656;2023-07-29T13:55:53;99092.38;;;26.74;50.84
77299;BME280;66361;52.034;20.656;2023-07-29T13:59:56;99100.66;;;26.98;51.48
77299;BME280;66361;52.034;20.656;2023-07-29T14:04:01;99090.59;;;27.34;48.55
77299;BME280;66361;52.034;20.656;2023-07-29T14:08:06;99085.69;;;27.43;47.83
77299;BME280;66361;52.034;20.656;2023-07-29T14:12:08;99088.72;;;27.35;51.46
77299;BME280;66361;52.034;20.656;2023-07-29T14:16:14;99079.28;;;26.89;54.78
77299;BME280;66361;52.034;20.656;2023-07-29T14:20:19;99079.09;;;26.48;54.83
77299;BME280;66361;52.034;20.656;2023-07-29T14:24:23;99076.28;;;26.61;55.52
77299;BME280;66361;52.034;20.656;2023-07-29T14:28:26;99074.41;;;26.62;58.14
77299;BME280;66361;52.034;20.656;2023-07-29T14:32:29;99062.94;;;26.96;52.26
77299;BME280;66361;52.034;20.656;2023-07-29T14:36:34;99062.78;;;27.27;49.43
77299;BME280;66361;52.034;20.656;2023-07-29T14:40:37;99069.44;;;27.84;48.75
77299;BME280;66361;52.034;20.656;2023-07-29T14:44:42;99075.53;;;27.38;50.79
77299;BME280;66361;52.034;20.656;2023-07-29T14:48:45;99067.38;;;27.09;52.09
77299;BME280;66361;52.034;20.656;2023-07-29T14:52:50;99063.88;;;26.90;53.38
77299;BME280;66361;52.034;20.656;2023-07-29T14:56:53;99057.03;;;26.69;53.57
77299;BME280;66361;52.034;20.656;2023-07-29T15:00:57;99052.00;;;26.73;54.29
77299;BME280;66361;52.034;20.656;2023-07-29T15:05:00;99049.69;;;27.06;51.00
77299;BME280;66361;52.034;20.656;2023-07-29T15:09:05;99040.84;;;27.29;51.64
77299;BME280;66361;52.034;20.656;2023-07-29T15:13:09;99047.72;;;27.31;50.78
77299;BME280;66361;52.034;20.656;2023-07-29T15:17:12;99045.69;;;27.27;54.33
77299;BME280;66361;52.034;20.656;2023-07-29T15:21:16;99041.09;;;27.27;53.58
77299;BME280;66361;52.034;20.656;2023-07-29T15:25:20;99045.84;;;27.14;55.94
77299;BME280;66361;52.034;20.656;2023-07-29T15:29:23;99039.09;;;27.23;52.74
77299;BME280;66361;52.034;20.656;2023-07-29T15:33:27;99046.47;;;27.46;51.40
77299;BME280;66361;52.034;20.656;2023-07-29T15:37:30;99052.16;;;27.26;54.05
77299;BME280;66361;52.034;20.656;2023-07-29T15:41:35;99047.78;;;27.25;51.74
77299;BME280;66361;52.034;20.656;2023-07-29T15:45:39;99045.97;;;26.89;53.92
77299;BME280;66361;52.034;20.656;2023-07-29T15:49:43;99027.97;;;26.94;52.63
77299;BME280;66361;52.034;20.656;2023-07-29T15:53:46;99024.75;;;26.49;55.26
77299;BME280;66361;52.034;20.656;2023-07-29T15:57:51;99024.94;;;26.55;53.54
77299;BME280;66361;52.034;20.656;2023-07-29T16:01:54;99020.56;;;26.54;55.00
77299;BME280;66361;52.034;20.656;2023-07-29T16:05:58;99003.91;;;26.57;53.59
77299;BME280;66361;52.034;20.656;2023-07-29T16:10:03;99004.34;;;26.54;55.12
77299;BME280;66361;52.034;20.656;2023-07-29T16:14:08;98998.59;;;26.43;57.38
77299;BME280;66361;52.034;20.656;2023-07-29T16:18:11;99002.59;;;26.41;55.36
77299;BME280;66361;52.034;20.656;2023-07-29T16:22:14;99005.06;;;26.42;54.08
77299;BME280;66361;52.034;20.656;2023-07-29T16:26:17;99001.16;;;26.38;54.12
77299;BME280;66361;52.034;20.656;2023-07-29T16:30:22;98986.28;;;26.29;54.45
77299;BME280;66361;52.034;20.656;2023-07-29T16:34:25;98975.91;;;26.26;54.87
77299;BME280;66361;52.034;20.656;2023-07-29T16:38:28;98988.44;;;26.21;54.55
77299;BME280;66361;52.034;20.656;2023-07-29T16:42:32;98988.22;;;26.04;55.33
77299;BME280;66361;52.034;20.656;2023-07-29T16:46:38;98990.47;;;26.07;55.37
77299;BME280;66361;52.034;20.656;2023-07-29T16:50:44;98983.34;;;26.13;55.31
77299;BME280;66361;52.034;20.656;2023-07-29T16:54:47;98987.50;;;25.90;56.92
77299;BME280;66361;52.034;20.656;2023-07-29T16:58:50;98979.19;;;25.92;57.14
77299;BME280;66361;52.034;20.656;2023-07-29T17:02:59;98980.31;;;25.84;56.03
77299;BME280;66361;52.034;20.656;2023-07-29T17:07:03;98974.69;;;25.79;57.15
77299;BME280;66361;52.034;20.656;2023-07-29T17:11:06;98970.53;;;25.59;57.91
77299;BME280;66361;52.034;20.656;2023-07-29T17:15:10;98966.75;;;25.35;57.73
77299;BME280;66361;52.034;20.656;2023-07-29T17:19:16;98965.94;;;24.96;59.42
77299;BME280;66361;52.034;20.656;2023-07-29T17:23:19;98958.44;;;24.67;61.65
77299;BME280;66361;52.034;20.656;2023-07-29T17:27:22;98955.84;;;24.47;62.25
77299;BME280;66361;52.034;20.656;2023-07-29T17:31:25;98953.59;;;24.25;63.19
77299;BME280;66361;52.034;20.656;2023-07-29T17:35:32;98948.47;;;24.10;64.95
77299;BME280;66361;52.034;20.656;2023-07-29T17:39:36;98940.44;;;23.90;67.26
77299;BME280;66361;52.034;20.656;2023-07-29T17:43:43;98940.84;;;23.87;65.28
77299;BME280;66361;52.034;20.656;2023-07-29T17:47:51;98930.72;;;23.76;66.64
77299;BME280;66361;52.034;20.656;2023-07-29T17:51:56;98949.56;;;23.63;68.67
77299;BME280;66361;52.034;20.656;2023-07-29T17:56:00;98941.28;;;23.58;67.93
77299;BME280;66361;52.034;20.656;2023-07-29T18:00:04;98937.78;;;23.44;68.49
77299;BME280;66361;52.034;20.656;2023-07-29T18:04:08;98939.63;;;23.24;70.47
77299;BME280;66361;52.034;20.656;2023-07-29T18:08:12;98949.78;;;23.15;71.11
77299;BME280;66361;52.034;20.656;2023-07-29T18:12:15;98945.00;;;22.98;72.17
77299;BME280;66361;52.034;20.656;2023-07-29T18:16:19;98947.03;;;22.89;72.68
77299;BME280;66361;52.034;20.656;2023-07-29T18:20:22;98946.78;;;22.78;72.26
77299;BME280;66361;52.034;20.656;2023-07-29T18:24:26;98943.25;;;22.71;71.49
77299;BME280;66361;52.034;20.656;2023-07-29T18:28:29;98943.78;;;22.46;73.32
77299;BME280;66361;52.034;20.656;2023-07-29T18:32:33;98943.53;;;22.35;74.92
77299;BME280;66361;52.034;20.656;2023-07-29T18:36:36;98957.78;;;22.29;73.06
77299;BME280;66361;52.034;20.656;2023-07-29T18:40:43;98955.69;;;22.24;73.68
77299;BME280;66361;52.034;20.656;2023-07-29T18:44:46;98956.69;;;22.16;73.47
77299;BME280;66361;52.034;20.656;2023-07-29T18:48:49;98950.91;;;22.19;73.17
77299;BME280;66361;52.034;20.656;2023-07-29T18:52:52;98953.09;;;22.03;74.26
77299;BME280;66361;52.034;20.656;2023-07-29T18:56:58;98949.47;;;21.89;76.19
77299;BME280;66361;52.034;20.656;2023-07-29T19:01:01;98943.19;;;21.76;76.81
77299;BME280;66361;52.034;20.656;2023-07-29T19:05:04;98949.22;;;21.50;80.50
77299;BME280;66361;52.034;20.656;2023-07-29T19:09:09;98944.13;;;21.34;80.11
77299;BME280;66361;52.034;20.656;2023-07-29T19:13:14;98936.50;;;21.16;81.68
77299;BME280;66361;52.034;20.656;2023-07-29T19:17:17;98935.94;;;20.99;82.36
77299;BME280;66361;52.034;20.656;2023-07-29T19:21:21;98936.00;;;20.85;83.09
77299;BME280;66361;52.034;20.656;2023-07-29T19:25:25;98925.28;;;20.85;82.86
77299;BME280;66361;52.034;20.656;2023-07-29T19:29:30;98914.81;;;20.90;83.09
77299;BME280;66361;52.034;20.656;2023-07-29T19:33:33;98919.44;;;21.02;81.88
77299;BME280;66361;52.034;20.656;2023-07-29T19:37:37;98915.38;;;21.06;81.12
77299;BME280;66361;52.034;20.656;2023-07-29T19:41:41;98916.97;;;21.01;82.35
77299;BME280;66361;52.034;20.656;2023-07-29T19:45:47;98917.03;;;21.07;82.44
77299;BME280;66361;52.034;20.656;2023-07-29T19:50:11;98907.75;;;21.10;81.75
77299;BME280;66361;52.034;20.656;2023-07-29T19:54:14;98902.91;;;21.20;81.21
77299;BME280;66361;52.034;20.656;2023-07-29T19:58:18;98911.19;;;21.25;82.10
77299;BME280;66361;52.034;20.656;2023-07-29T20:02:23;98922.31;;;21.22;83.24
77299;BME280;66361;52.034;20.656;2023-07-29T20:06:28;98919.66;;;21.43;80.33
77299;BME280;66361;52.034;20.656;2023-07-29T20:10:31;98914.81;;;21.66;78.18
77299;BME280;66361;52.034;20.656;2023-07-29T20:14:36;98905.09;;;22.00;76.31
77299;BME280;66361;52.034;20.656;2023-07-29T20:18:41;98906.16;;;22.05;76.11
77299;BME280;66361;52.034;20.656;2023-07-29T20:22:44;98913.63;;;22.10;76.22
77299;BME280;66361;52.034;20.656;2023-07-29T20:26:48;98918.88;;;22.18;75.64
77299;BME280;66361;52.034;20.656;2023-07-29T20:31:16;98944.28;;;22.15;75.97
77299;BME280;66361;52.034;20.656;2023-07-29T20:35:21;98951.19;;;22.38;74.62
77299;BME280;66361;52.034;20.656;2023-07-29T20:39:25;98958.94;;;22.67;71.64
77299;BME280;66361;52.034;20.656;2023-07-29T20:43:28;98997.84;;;22.58;69.54
77299;BME280;66361;52.034;20.656;2023-07-29T20:47:31;98992.75;;;22.29;65.59
77299;BME280;66361;52.034;20.656;2023-07-29T20:51:36;99013.22;;;21.74;69.24
77299;BME280;66361;52.034;20.656;2023-07-29T20:55:39;99013.38;;;21.23;74.66
77299;BME280;66361;52.034;20.656;2023-07-29T20:59:43;99029.97;;;20.76;79.48
77299;BME280;66361;52.034;20.656;2023-07-29T21:03:47;99043.50;;;20.24;84.00
77299;BME280;66361;52.034;20.656;2023-07-29T21:07:52;99051.97;;;19.84;91.02
77299;BME280;66361;52.034;20.656;2023-07-29T21:11:55;99049.16;;;19.63;94.13
77299;BME280;66361;52.034;20.656;2023-07-29T21:49:21;99012.66;;;18.63;100.00
77299;BME280;66361;52.034;20.656;2023-07-29T21:53:25;99024.19;;;18.55;100.00
77299;BME280;66361;52.034;20.656;2023-07-29T21:57:28;99011.19;;;18.52;100.00
77299;BME280;66361;52.034;20.656;2023-07-29T22:01:32;99008.03;;;18.49;100.00
77299;BME280;66361;52.034;20.656;2023-07-29T22:05:37;99007.91;;;18.42;100.00
77299;BME280;66361;52.034;20.656;2023-07-29T22:09:40;99004.28;;;18.35;100.00
77299;BME280;66361;52.034;20.656;2023-07-29T22:13:44;99002.59;;;18.34;100.00
77299;BME280;66361;52.034;20.656;2023-07-29T22:17:47;98989.25;;;18.34;100.00
77299;BME280;66361;52.034;20.656;2023-07-29T22:21:52;98990.59;;;18.30;100.00
77299;BME280;66361;52.034;20.656;2023-07-29T22:25:59;98983.25;;;18.32;100.00
77299;BME280;66361;52.034;20.656;2023-07-29T22:30:06;98987.09;;;18.29;100.00
77299;BME280;66361;52.034;20.656;2023-07-29T22:34:10;98989.13;;;18.27;100.00
77299;BME280;66361;52.034;20.656;2023-07-29T22:38:15;98968.56;;;18.28;100.00
77299;BME280;66361;52.034;20.656;2023-07-29T22:42:20;98959.88;;;18.26;100.00
77299;BME280;66361;52.034;20.656;2023-07-29T22:46:27;98954.91;;;18.23;100.00
77299;BME280;66361;52.034;20.656;2023-07-29T22:50:30;98952.22;;;18.23;100.00
77299;BME280;66361;52.034;20.656;2023-07-29T22:54:35;98958.41;;;18.23;100.00
77299;BME280;66361;52.034;20.656;2023-07-29T22:58:38;98947.88;;;18.22;100.00
77299;BME280;66361;52.034;20.656;2023-07-29T23:02:42;98945.22;;;18.22;100.00
77299;BME280;66361;52.034;20.656;2023-07-29T23:06:45;98936.56;;;18.20;100.00
77299;BME280;66361;52.034;20.656;2023-07-29T23:10:50;98933.88;;;18.20;100.00
77299;BME280;66361;52.034;20.656;2023-07-29T23:14:53;98940.88;;;18.21;100.00
77299;BME280;66361;52.034;20.656;2023-07-29T23:18:58;98955.41;;;18.18;100.00
77299;BME280;66361;52.034;20.656;2023-07-29T23:23:03;98967.28;;;18.16;100.00
77299;BME280;66361;52.034;20.656;2023-07-29T23:27:07;98971.78;;;18.15;100.00
